sensor_id;sensor_type;location;lat;lon;timestamp;P1;durP1;ratioP1;P2;durP2;ratioP2
2404;SDS011;1213;43.206;27.922;2023-04-01T00:00:03;46.10;;;27.60;;
2404;SDS011;1213;43.206;27.922;2023-04-01T00:02:29;38.43;;;25.63;;
2404;SDS011;1213;43.206;27.922;2023-04-01T00:04:54;38.70;;;25.67;;
2404;SDS011;1213;43.206;27.922;2023-04-01T00:07:19;36.43;;;25.07;;
2404;SDS011;1213;43.206;27.922;2023-04-01T00:09:45;50.00;;;25.80;;
2404;SDS011;1213;43.206;27.922;2023-04-01T00:12:10;35.80;;;22.60;;
2404;SDS011;1213;43.206;27.922;2023-04-01T00:14:36;31.90;;;21.10;;
2404;SDS011;1213;43.206;27.922;2023-04-01T00:17:02;30.10;;;21.57;;
2404;SDS011;1213;43.206;27.922;2023-04-01T00:19:27;38.83;;;24.60;;
2404;SDS011;1213;43.206;27.922;2023-04-01T00:21:53;40.17;;;21.80;;
2404;SDS011;1213;43.206;27.922;2023-04-01T00:24:18;30.00;;;21.93;;
2404;SDS011;1213;43.206;27.922;2023-04-01T00:26:44;27.97;;;19.00;;
2404;SDS011;1213;43.206;27.922;2023-04-01T00:29:09;27.97;;;19.07;;
2404;SDS011;1213;43.206;27.922;2023-04-01T00:31:34;26.53;;;18.47;;
2404;SDS011;1213;43.206;27.922;2023-04-01T00:34:00;23.57;;;16.50;;
2404;SDS011;1213;43.206;27.922;2023-04-01T00:36:25;37.63;;;17.97;;
2404;SDS011;1213;43.206;27.922;2023-04-01T00:38:50;28.77;;;17.03;;
2404;SDS011;1213;43.206;27.922;2023-04-01T00:41:17;26.23;;;17.23;;
2404;SDS011;1213;43.206;27.922;2023-04-01T00:43:43;22.70;;;14.27;;
2404;SDS011;1213;43.206;27.922;2023-04-01T00:46:09;25.13;;;14.60;;
2404;SDS011;1213;43.206;27.922;2023-04-01T00:48:35;19.63;;;13.50;;
2404;SDS011;1213;43.206;27.922;2023-04-01T00:51:05;17.10;;;14.27;;
2404;SDS011;1213;43.206;27.922;2023-04-01T00:53:31;21.00;;;14.37;;
2404;SDS011;1213;43.206;27.922;2023-04-01T00:56:03;23.33;;;16.80;;
2404;SDS011;1213;43.206;27.922;2023-04-01T00:58:29;33.70;;;17.87;;
2404;SDS011;1213;43.206;27.922;2023-04-01T01:00:56;36.93;;;23.13;;
2404;SDS011;1213;43.206;27.922;2023-04-01T01:03:22;39.57;;;25.60;;
2404;SDS011;1213;43.206;27.922;2023-04-01T01:10:48;43.03;;;26.00;;
2404;SDS011;1213;43.206;27.922;2023-04-01T01:13:17;31.87;;;23.40;;
2404;SDS011;1213;43.206;27.922;2023-04-01T01:26:14;36.77;;;24.63;;
2404;SDS011;1213;43.206;27.922;2023-04-01T01:31:23;39.77;;;25.67;;
2404;SDS011;1213;43.206;27.922;2023-04-01T01:36:25;32.57;;;20.70;;
2404;SDS011;1213;43.206;27.922;2023-04-01T01:38:51;30.17;;;18.73;;
2404;SDS011;1213;43.206;27.922;2023-04-01T01:41:17;23.57;;;17.80;;
2404;SDS011;1213;43.206;27.922;2023-04-01T01:43:44;31.53;;;18.07;;
2404;SDS011;1213;43.206;27.922;2023-04-01T01:46:12;27.57;;;16.60;;
2404;SDS011;1213;43.206;27.922;2023-04-01T01:48:39;24.10;;;15.87;;
2404;SDS011;1213;43.206;27.922;2023-04-01T01:51:05;27.13;;;16.27;;
2404;SDS011;1213;43.206;27.922;2023-04-01T01:53:31;29.30;;;17.03;;
2404;SDS011;1213;43.206;27.922;2023-04-01T01:55:56;26.77;;;17.37;;
2404;SDS011;1213;43.206;27.922;2023-04-01T01:58:23;27.10;;;17.87;;
2404;SDS011;1213;43.206;27.922;2023-04-01T02:00:53;25.27;;;16.93;;
2404;SDS011;1213;43.206;27.922;2023-04-01T02:03:20;24.43;;;15.37;;
2404;SDS011;1213;43.206;27.922;2023-04-01T02:05:46;22.97;;;16.30;;
2404;SDS011;1213;43.206;27.922;2023-04-01T02:08:13;23.80;;;15.73;;
2404;SDS011;1213;43.206;27.922;2023-04-01T02:10:41;19.07;;;14.20;;
2404;SDS011;1213;43.206;27.922;2023-04-01T02:13:13;31.70;;;16.97;;
2404;SDS011;1213;43.206;27.922;2023-04-01T02:15:41;26.80;;;15.67;;
2404;SDS011;1213;43.206;27.922;2023-04-01T02:18:07;28.17;;;16.80;;
2404;SDS011;1213;43.206;27.922;2023-04-01T02:20:33;26.83;;;15.93;;
2404;SDS011;1213;43.206;27.922;2023-04-01T02:22:59;29.83;;;16.03;;
2404;SDS011;1213;43.206;27.922;2023-04-01T02:25:26;19.90;;;15.37;;
2404;SDS011;1213;43.206;27.922;2023-04-01T02:27:52;21.67;;;13.67;;
2404;SDS011;1213;43.206;27.922;2023-04-01T02:30:18;32.20;;;16.07;;
2404;SDS011;1213;43.206;27.922;2023-04-01T02:32:44;20.50;;;14.33;;
2404;SDS011;1213;43.206;27.922;2023-04-01T02:35:10;22.27;;;15.93;;
2404;SDS011;1213;43.206;27.922;2023-04-01T02:37:36;22.90;;;14.80;;
2404;SDS011;1213;43.206;27.922;2023-04-01T02:40:02;19.77;;;14.87;;
2404;SDS011;1213;43.206;27.922;2023-04-01T02:42:27;24.50;;;16.20;;
2404;SDS011;1213;43.206;27.922;2023-04-01T02:44:53;25.90;;;16.07;;
2404;SDS011;1213;43.206;27.922;2023-04-01T02:47:18;30.90;;;15.47;;
2404;SDS011;1213;43.206;27.922;2023-04-01T02:49:43;27.80;;;15.80;;
2404;SDS011;1213;43.206;27.922;2023-04-01T02:52:09;24.83;;;15.93;;
2404;SDS011;1213;43.206;27.922;2023-04-01T02:54:34;21.93;;;14.93;;
2404;SDS011;1213;43.206;27.922;2023-04-01T02:56:59;25.47;;;15.30;;
2404;SDS011;1213;43.206;27.922;2023-04-01T02:59:25;22.90;;;16.80;;
2404;SDS011;1213;43.206;27.922;2023-04-01T03:01:50;23.77;;;14.40;;
2404;SDS011;1213;43.206;27.922;2023-04-01T03:04:15;21.47;;;16.37;;
2404;SDS011;1213;43.206;27.922;2023-04-01T03:06:40;24.30;;;15.53;;
2404;SDS011;1213;43.206;27.922;2023-04-01T03:09:06;24.10;;;17.60;;
2404;SDS011;1213;43.206;27.922;2023-04-01T03:11:31;26.33;;;16.20;;
2404;SDS011;1213;43.206;27.922;2023-04-01T03:13:56;28.83;;;17.27;;
2404;SDS011;1213;43.206;27.922;2023-04-01T03:16:22;26.20;;;15.67;;
2404;SDS011;1213;43.206;27.922;2023-04-01T03:18:47;24.30;;;15.20;;
2404;SDS011;1213;43.206;27.922;2023-04-01T03:21:18;23.20;;;14.47;;
2404;SDS011;1213;43.206;27.922;2023-04-01T03:23:44;19.77;;;15.67;;
2404;SDS011;1213;43.206;27.922;2023-04-01T03:26:09;25.20;;;14.83;;
2404;SDS011;1213;43.206;27.922;2023-04-01T03:28:34;27.47;;;16.10;;
2404;SDS011;1213;43.206;27.922;2023-04-01T03:31:00;22.33;;;14.77;;
2404;SDS011;1213;43.206;27.922;2023-04-01T03:33:25;29.30;;;15.10;;
2404;SDS011;1213;43.206;27.922;2023-04-01T03:35:51;20.77;;;15.03;;
2404;SDS011;1213;43.206;27.922;2023-04-01T03:38:17;23.37;;;14.17;;
2404;SDS011;1213;43.206;27.922;2023-04-01T03:40:43;27.17;;;16.30;;
2404;SDS011;1213;43.206;27.922;2023-04-01T03:43:08;24.33;;;15.27;;
2404;SDS011;1213;43.206;27.922;2023-04-01T03:45:35;28.40;;;17.07;;
2404;SDS011;1213;43.206;27.922;2023-04-01T03:48:00;22.90;;;15.50;;
2404;SDS011;1213;43.206;27.922;2023-04-01T03:50:25;28.43;;;17.00;;
2404;SDS011;1213;43.206;27.922;2023-04-01T03:52:51;23.53;;;15.47;;
2404;SDS011;1213;43.206;27.922;2023-04-01T03:55:16;27.03;;;16.90;;
2404;SDS011;1213;43.206;27.922;2023-04-01T03:57:43;21.77;;;15.03;;
2404;SDS011;1213;43.206;27.922;2023-04-01T04:00:08;28.37;;;17.10;;
2404;SDS011;1213;43.206;27.922;2023-04-01T04:02:34;20.60;;;15.60;;
2404;SDS011;1213;43.206;27.922;2023-04-01T04:05:00;37.13;;;16.60;;
2404;SDS011;1213;43.206;27.922;2023-04-01T04:07:25;26.07;;;14.87;;
2404;SDS011;1213;43.206;27.922;2023-04-01T04:09:50;36.70;;;15.70;;
2404;SDS011;1213;43.206;27.922;2023-04-01T04:12:16;21.13;;;15.27;;
2404;SDS011;1213;43.206;27.922;2023-04-01T04:14:41;25.17;;;13.90;;
2404;SDS011;1213;43.206;27.922;2023-04-01T04:17:06;29.47;;;15.37;;
2404;SDS011;1213;43.206;27.922;2023-04-01T04:19:33;24.90;;;15.13;;
2404;SDS011;1213;43.206;27.922;2023-04-01T04:21:59;26.70;;;16.63;;
2404;SDS011;1213;43.206;27.922;2023-04-01T04:24:26;17.70;;;14.37;;
2404;SDS011;1213;43.206;27.922;2023-04-01T04:26:52;23.17;;;13.90;;
2404;SDS011;1213;43.206;27.922;2023-04-01T04:29:17;22.13;;;15.93;;
2404;SDS011;1213;43.206;27.922;2023-04-01T04:31:43;21.33;;;14.37;;
2404;SDS011;1213;43.206;27.922;2023-04-01T04:34:08;31.13;;;15.50;;
2404;SDS011;1213;43.206;27.922;2023-04-01T04:36:33;24.70;;;14.00;;
2404;SDS011;1213;43.206;27.922;2023-04-01T04:38:59;32.23;;;15.83;;
2404;SDS011;1213;43.206;27.922;2023-04-01T04:41:27;25.83;;;15.20;;
2404;SDS011;1213;43.206;27.922;2023-04-01T04:43:53;21.33;;;14.80;;
2404;SDS011;1213;43.206;27.922;2023-04-01T04:46:19;25.77;;;15.80;;
2404;SDS011;1213;43.206;27.922;2023-04-01T04:48:44;29.60;;;17.40;;
2404;SDS011;1213;43.206;27.922;2023-04-01T04:51:12;24.37;;;17.13;;
2404;SDS011;1213;43.206;27.922;2023-04-01T04:53:38;26.87;;;15.40;;
2404;SDS011;1213;43.206;27.922;2023-04-01T04:56:04;27.03;;;15.47;;
2404;SDS011;1213;43.206;27.922;2023-04-01T04:58:30;20.67;;;14.97;;
2404;SDS011;1213;43.206;27.922;2023-04-01T05:00:55;23.83;;;15.37;;
2404;SDS011;1213;43.206;27.922;2023-04-01T05:03:20;39.87;;;14.07;;
2404;SDS011;1213;43.206;27.922;2023-04-01T05:05:52;27.60;;;12.47;;
2404;SDS011;1213;43.206;27.922;2023-04-01T05:08:18;26.23;;;13.20;;
2404;SDS011;1213;43.206;27.922;2023-04-01T05:10:44;20.60;;;12.80;;
2404;SDS011;1213;43.206;27.922;2023-04-01T05:13:10;18.93;;;13.07;;
2404;SDS011;1213;43.206;27.922;2023-04-01T05:15:35;24.10;;;12.97;;
2404;SDS011;1213;43.206;27.922;2023-04-01T05:18:00;15.67;;;13.67;;
2404;SDS011;1213;43.206;27.922;2023-04-01T05:20:26;24.53;;;15.10;;
2404;SDS011;1213;43.206;27.922;2023-04-01T05:22:55;19.90;;;14.87;;
2404;SDS011;1213;43.206;27.922;2023-04-01T05:25:20;26.67;;;15.93;;
2404;SDS011;1213;43.206;27.922;2023-04-01T05:27:45;32.07;;;15.00;;
2404;SDS011;1213;43.206;27.922;2023-04-01T05:30:11;28.97;;;14.60;;
2404;SDS011;1213;43.206;27.922;2023-04-01T05:32:36;20.07;;;14.57;;
2404;SDS011;1213;43.206;27.922;2023-04-01T05:35:04;24.67;;;15.20;;
2404;SDS011;1213;43.206;27.922;2023-04-01T05:37:30;22.57;;;14.13;;
2404;SDS011;1213;43.206;27.922;2023-04-01T05:39:56;23.00;;;15.70;;
2404;SDS011;1213;43.206;27.922;2023-04-01T05:42:23;19.63;;;13.20;;
2404;SDS011;1213;43.206;27.922;2023-04-01T05:44:48;21.40;;;15.00;;
2404;SDS011;1213;43.206;27.922;2023-04-01T05:47:14;27.67;;;14.93;;
2404;SDS011;1213;43.206;27.922;2023-04-01T05:49:39;22.83;;;15.13;;
2404;SDS011;1213;43.206;27.922;2023-04-01T05:52:04;30.40;;;18.30;;
2404;SDS011;1213;43.206;27.922;2023-04-01T05:54:33;29.03;;;15.33;;
2404;SDS011;1213;43.206;27.922;2023-04-01T05:56:58;26.77;;;14.77;;
2404;SDS011;1213;43.206;27.922;2023-04-01T05:59:24;31.17;;;16.10;;
2404;SDS011;1213;43.206;27.922;2023-04-01T06:01:50;29.40;;;13.93;;
2404;SDS011;1213;43.206;27.922;2023-04-01T06:04:16;25.90;;;14.00;;
2404;SDS011;1213;43.206;27.922;2023-04-01T06:06:42;33.30;;;15.13;;
2404;SDS011;1213;43.206;27.922;2023-04-01T06:09:17;14.77;;;10.90;;
2404;SDS011;1213;43.206;27.922;2023-04-01T06:24:44;13.63;;;10.40;;
2404;SDS011;1213;43.206;27.922;2023-04-01T06:35:04;10.53;;;8.03;;
2404;SDS011;1213;43.206;27.922;2023-04-01T06:48:02;11.53;;;7.70;;
2404;SDS011;1213;43.206;27.922;2023-04-01T06:50:30;13.60;;;7.23;;
2404;SDS011;1213;43.206;27.922;2023-04-01T06:55:50;9.43;;;5.77;;
2404;SDS011;1213;43.206;27.922;2023-04-01T06:58:27;5.83;;;5.03;;
2404;SDS011;1213;43.206;27.922;2023-04-01T07:00:56;7.37;;;5.40;;
2404;SDS011;1213;43.206;27.922;2023-04-01T07:03:32;7.30;;;4.53;;
2404;SDS011;1213;43.206;27.922;2023-04-01T07:06:23;5.77;;;4.70;;
2404;SDS011;1213;43.206;27.922;2023-04-01T07:08:44;6.97;;;4.80;;
2404;SDS011;1213;43.206;27.922;2023-04-01T07:11:11;6.80;;;5.33;;
2404;SDS011;1213;43.206;27.922;2023-04-01T07:18:37;4.93;;;4.43;;
2404;SDS011;1213;43.206;27.922;2023-04-01T07:21:03;11.27;;;4.33;;
2404;SDS011;1213;43.206;27.922;2023-04-01T07:23:32;4.33;;;3.70;;
2404;SDS011;1213;43.206;27.922;2023-04-01T07:26:34;6.00;;;4.50;;
2404;SDS011;1213;43.206;27.922;2023-04-01T07:28:53;6.10;;;4.37;;
2404;SDS011;1213;43.206;27.922;2023-04-01T07:31:20;5.83;;;4.03;;
2404;SDS011;1213;43.206;27.922;2023-04-01T07:37:10;13.33;;;4.13;;
2404;SDS011;1213;43.206;27.922;2023-04-01T07:44:59;8.53;;;4.80;;
2404;SDS011;1213;43.206;27.922;2023-04-01T07:47:52;7.70;;;4.10;;
2404;SDS011;1213;43.206;27.922;2023-04-01T07:50:19;5.43;;;3.80;;
2404;SDS011;1213;43.206;27.922;2023-04-01T08:09:06;7.40;;;4.10;;
2404;SDS011;1213;43.206;27.922;2023-04-01T08:18:46;5.20;;;3.80;;
2404;SDS011;1213;43.206;27.922;2023-04-01T08:21:17;6.60;;;3.60;;
2404;SDS011;1213;43.206;27.922;2023-04-01T08:23:49;4.50;;;3.37;;
2404;SDS011;1213;43.206;27.922;2023-04-01T08:29:06;4.63;;;3.33;;
2404;SDS011;1213;43.206;27.922;2023-04-01T08:34:03;4.70;;;3.30;;
2404;SDS011;1213;43.206;27.922;2023-04-01T08:36:34;5.57;;;3.23;;
2404;SDS011;1213;43.206;27.922;2023-04-01T08:39:07;3.87;;;2.97;;
2404;SDS011;1213;43.206;27.922;2023-04-01T08:44:19;8.17;;;4.10;;
2404;SDS011;1213;43.206;27.922;2023-04-01T08:49:40;10.13;;;3.10;;
2404;SDS011;1213;43.206;27.922;2023-04-01T08:55:01;8.30;;;3.50;;
2404;SDS011;1213;43.206;27.922;2023-04-01T09:00:04;6.43;;;3.13;;
2404;SDS011;1213;43.206;27.922;2023-04-01T09:02:44;4.27;;;3.83;;
2404;SDS011;1213;43.206;27.922;2023-04-01T09:05:18;5.87;;;3.50;;
2404;SDS011;1213;43.206;27.922;2023-04-01T09:16:02;6.30;;;3.57;;
2404;SDS011;1213;43.206;27.922;2023-04-01T09:21:10;8.10;;;4.00;;
2404;SDS011;1213;43.206;27.922;2023-04-01T09:26:07;4.20;;;3.17;;
2404;SDS011;1213;43.206;27.922;2023-04-01T09:28:40;5.70;;;3.40;;
2404;SDS011;1213;43.206;27.922;2023-04-01T09:52:43;9.80;;;4.40;;
2404;SDS011;1213;43.206;27.922;2023-04-01T10:03:15;7.13;;;3.80;;
2404;SDS011;1213;43.206;27.922;2023-04-01T10:08:40;5.60;;;4.00;;
2404;SDS011;1213;43.206;27.922;2023-04-01T10:46:41;5.90;;;3.80;;
2404;SDS011;1213;43.206;27.922;2023-04-01T11:07:46;4.57;;;3.50;;
2404;SDS011;1213;43.206;27.922;2023-04-01T11:15:41;6.03;;;4.33;;
2404;SDS011;1213;43.206;27.922;2023-04-01T11:20:56;4.20;;;3.80;;
2404;SDS011;1213;43.206;27.922;2023-04-01T11:36:25;13.23;;;4.33;;
2404;SDS011;1213;43.206;27.922;2023-04-01T11:44:26;4.67;;;3.73;;
2404;SDS011;1213;43.206;27.922;2023-04-01T11:47:13;4.67;;;3.73;;
2404;SDS011;1213;43.206;27.922;2023-04-01T11:49:46;6.30;;;3.77;;
2404;SDS011;1213;43.206;27.922;2023-04-01T12:05:07;7.13;;;3.67;;
2404;SDS011;1213;43.206;27.922;2023-04-01T12:10:18;9.13;;;4.33;;
2404;SDS011;1213;43.206;27.922;2023-04-01T12:18:38;6.23;;;4.40;;
2404;SDS011;1213;43.206;27.922;2023-04-01T12:30:48;3.50;;;3.20;;
2404;SDS011;1213;43.206;27.922;2023-04-01T12:33:20;7.57;;;4.27;;
2404;SDS011;1213;43.206;27.922;2023-04-01T12:41:09;6.53;;;4.87;;
2404;SDS011;1213;43.206;27.922;2023-04-01T12:46:10;5.13;;;4.20;;
2404;SDS011;1213;43.206;27.922;2023-04-01T12:48:42;8.13;;;4.80;;
2404;SDS011;1213;43.206;27.922;2023-04-01T12:59:21;13.83;;;5.57;;
2404;SDS011;1213;43.206;27.922;2023-04-01T13:02:00;8.40;;;4.20;;
2404;SDS011;1213;43.206;27.922;2023-04-01T13:20:16;8.10;;;5.50;;
2404;SDS011;1213;43.206;27.922;2023-04-01T13:27:45;11.10;;;5.10;;
2404;SDS011;1213;43.206;27.922;2023-04-01T13:35:35;6.83;;;4.33;;
2404;SDS011;1213;43.206;27.922;2023-04-01T13:38:17;7.00;;;4.20;;
2404;SDS011;1213;43.206;27.922;2023-04-01T13:40:49;5.00;;;4.07;;
2404;SDS011;1213;43.206;27.922;2023-04-01T13:43:19;4.80;;;3.57;;
2404;SDS011;1213;43.206;27.922;2023-04-01T13:54:05;4.50;;;3.40;;
2404;SDS011;1213;43.206;27.922;2023-04-01T13:56:49;11.10;;;7.13;;
2404;SDS011;1213;43.206;27.922;2023-04-01T14:17:16;6.23;;;4.20;;
2404;SDS011;1213;43.206;27.922;2023-04-01T14:19:48;4.90;;;3.10;;
2404;SDS011;1213;43.206;27.922;2023-04-01T14:35:14;7.33;;;4.67;;
2404;SDS011;1213;43.206;27.922;2023-04-01T14:38:25;4.83;;;4.27;;
2404;SDS011;1213;43.206;27.922;2023-04-01T14:41:05;7.13;;;5.00;;
2404;SDS011;1213;43.206;27.922;2023-04-01T14:43:38;5.37;;;3.70;;
2404;SDS011;1213;43.206;27.922;2023-04-01T14:48:56;8.50;;;4.40;;
2404;SDS011;1213;43.206;27.922;2023-04-01T14:51:33;8.33;;;4.13;;
2404;SDS011;1213;43.206;27.922;2023-04-01T14:56:38;5.37;;;4.00;;
2404;SDS011;1213;43.206;27.922;2023-04-01T14:59:07;11.17;;;6.10;;
2404;SDS011;1213;43.206;27.922;2023-04-01T15:06:56;7.07;;;3.93;;
2404;SDS011;1213;43.206;27.922;2023-04-01T15:27:16;12.50;;;4.10;;
2404;SDS011;1213;43.206;27.922;2023-04-01T15:34:59;7.67;;;4.57;;
2404;SDS011;1213;43.206;27.922;2023-04-01T15:48:16;6.90;;;3.43;;
2404;SDS011;1213;43.206;27.922;2023-04-01T15:50:54;7.20;;;4.17;;
2404;SDS011;1213;43.206;27.922;2023-04-01T15:55:56;9.23;;;4.17;;
2404;SDS011;1213;43.206;27.922;2023-04-01T15:58:35;5.10;;;4.57;;
2404;SDS011;1213;43.206;27.922;2023-04-01T16:09:12;12.70;;;5.27;;
2404;SDS011;1213;43.206;27.922;2023-04-01T16:22:06;8.67;;;5.43;;
2404;SDS011;1213;43.206;27.922;2023-04-01T16:47:50;6.80;;;4.37;;
2404;SDS011;1213;43.206;27.922;2023-04-01T16:50:25;7.70;;;4.20;;
2404;SDS011;1213;43.206;27.922;2023-04-01T16:55:33;6.77;;;3.77;;
2404;SDS011;1213;43.206;27.922;2023-04-01T16:57:59;10.40;;;4.37;;
2404;SDS011;1213;43.206;27.922;2023-04-01T17:05:52;15.80;;;5.60;;
2404;SDS011;1213;43.206;27.922;2023-04-01T17:08:26;13.23;;;5.77;;
2404;SDS011;1213;43.206;27.922;2023-04-01T17:21:16;9.03;;;4.23;;
2404;SDS011;1213;43.206;27.922;2023-04-01T17:23:48;12.60;;;5.60;;
2404;SDS011;1213;43.206;27.922;2023-04-01T17:33:56;5.73;;;4.53;;
2404;SDS011;1213;43.206;27.922;2023-04-01T17:37:09;10.73;;;4.77;;
2404;SDS011;1213;43.206;27.922;2023-04-01T17:39:21;10.90;;;4.30;;
2404;SDS011;1213;43.206;27.922;2023-04-01T17:41:51;6.47;;;4.10;;
2404;SDS011;1213;43.206;27.922;2023-04-01T17:44:21;7.33;;;4.30;;
2404;SDS011;1213;43.206;27.922;2023-04-01T17:52:52;6.90;;;4.60;;
2404;SDS011;1213;43.206;27.922;2023-04-01T18:03:13;5.13;;;4.40;;
2404;SDS011;1213;43.206;27.922;2023-04-01T18:08:12;6.13;;;4.23;;
2404;SDS011;1213;43.206;27.922;2023-04-01T18:11:22;7.70;;;5.27;;
2404;SDS011;1213;43.206;27.922;2023-04-01T18:13:29;10.00;;;5.20;;
2404;SDS011;1213;43.206;27.922;2023-04-01T18:21:08;11.43;;;5.83;;
2404;SDS011;1213;43.206;27.922;2023-04-01T18:26:46;9.40;;;4.27;;
2404;SDS011;1213;43.206;27.922;2023-04-01T18:29:04;9.30;;;5.70;;
2404;SDS011;1213;43.206;27.922;2023-04-01T18:31:38;8.77;;;5.00;;
2404;SDS011;1213;43.206;27.922;2023-04-01T18:47:02;5.87;;;4.63;;
2404;SDS011;1213;43.206;27.922;2023-04-01T18:49:39;6.73;;;5.13;;
2404;SDS011;1213;43.206;27.922;2023-04-01T18:57:13;3.73;;;3.20;;
2404;SDS011;1213;43.206;27.922;2023-04-01T18:59:40;8.20;;;3.43;;
2404;SDS011;1213;43.206;27.922;2023-04-01T19:12:55;2.20;;;1.57;;
2404;SDS011;1213;43.206;27.922;2023-04-01T19:20:43;2.13;;;1.70;;
2404;SDS011;1213;43.206;27.922;2023-04-01T19:28:13;4.50;;;3.80;;
2404;SDS011;1213;43.206;27.922;2023-04-01T19:30:50;3.70;;;3.40;;
2404;SDS011;1213;43.206;27.922;2023-04-01T19:38:14;5.83;;;4.43;;
2404;SDS011;1213;43.206;27.922;2023-04-01T19:43:22;3.70;;;3.40;;
2404;SDS011;1213;43.206;27.922;2023-04-01T19:48:43;5.73;;;4.00;;
2404;SDS011;1213;43.206;27.922;2023-04-01T19:53:45;5.80;;;4.40;;
2404;SDS011;1213;43.206;27.922;2023-04-01T19:56:17;16.07;;;6.93;;
2404;SDS011;1213;43.206;27.922;2023-04-01T19:59:03;3.33;;;2.87;;
2404;SDS011;1213;43.206;27.922;2023-04-01T20:01:34;6.27;;;5.00;;
2404;SDS011;1213;43.206;27.922;2023-04-01T20:04:05;6.43;;;3.63;;
2404;SDS011;1213;43.206;27.922;2023-04-01T20:06:38;4.23;;;2.63;;
2404;SDS011;1213;43.206;27.922;2023-04-01T20:14:19;2.17;;;1.97;;
2404;SDS011;1213;43.206;27.922;2023-04-01T20:19:21;9.53;;;1.90;;
2404;SDS011;1213;43.206;27.922;2023-04-01T20:21:50;6.03;;;3.30;;
2404;SDS011;1213;43.206;27.922;2023-04-01T20:24:23;3.17;;;1.20;;
2404;SDS011;1213;43.206;27.922;2023-04-01T20:26:51;3.03;;;2.63;;
2404;SDS011;1213;43.206;27.922;2023-04-01T20:29:34;1.90;;;1.40;;
2404;SDS011;1213;43.206;27.922;2023-04-01T20:42:40;7.77;;;3.10;;
2404;SDS011;1213;43.206;27.922;2023-04-01T20:50:19;2.80;;;2.10;;
2404;SDS011;1213;43.206;27.922;2023-04-01T20:53:02;2.40;;;2.20;;
2404;SDS011;1213;43.206;27.922;2023-04-01T20:55:33;2.20;;;2.00;;
2404;SDS011;1213;43.206;27.922;2023-04-01T21:03:28;4.00;;;2.57;;
2404;SDS011;1213;43.206;27.922;2023-04-01T21:13:38;3.60;;;2.60;;
2404;SDS011;1213;43.206;27.922;2023-04-01T21:18:39;6.30;;;4.20;;
2404;SDS011;1213;43.206;27.922;2023-04-01T21:31:00;12.97;;;7.90;;
2404;SDS011;1213;43.206;27.922;2023-04-01T21:36:37;8.63;;;6.97;;
2404;SDS011;1213;43.206;27.922;2023-04-01T21:39:13;8.90;;;7.17;;
2404;SDS011;1213;43.206;27.922;2023-04-01T21:44:15;9.23;;;6.80;;
2404;SDS011;1213;43.206;27.922;2023-04-01T21:58:20;11.13;;;6.87;;
2404;SDS011;1213;43.206;27.922;2023-04-01T22:00:25;6.67;;;4.53;;
2404;SDS011;1213;43.206;27.922;2023-04-01T22:08:20;18.10;;;9.40;;
2404;SDS011;1213;43.206;27.922;2023-04-01T22:10:54;9.83;;;7.37;;
2404;SDS011;1213;43.206;27.922;2023-04-01T22:13:28;8.53;;;6.60;;
2404;SDS011;1213;43.206;27.922;2023-04-01T22:29:09;16.03;;;6.77;;
2404;SDS011;1213;43.206;27.922;2023-04-01T22:31:41;9.80;;;7.70;;
2404;SDS011;1213;43.206;27.922;2023-04-01T22:36:50;15.13;;;6.87;;
2404;SDS011;1213;43.206;27.922;2023-04-01T22:41:56;14.30;;;8.93;;
2404;SDS011;1213;43.206;27.922;2023-04-01T22:52:23;6.57;;;5.77;;
2404;SDS011;1213;43.206;27.922;2023-04-01T22:54:52;9.30;;;5.93;;
2404;SDS011;1213;43.206;27.922;2023-04-01T23:00:13;13.93;;;8.73;;
2404;SDS011;1213;43.206;27.922;2023-04-01T23:02:41;8.37;;;6.20;;
2404;SDS011;1213;43.206;27.922;2023-04-01T23:05:09;5.40;;;3.93;;
2404;SDS011;1213;43.206;27.922;2023-04-01T23:12:44;7.20;;;5.50;;
2404;SDS011;1213;43.206;27.922;2023-04-01T23:15:11;4.83;;;4.37;;
2404;SDS011;1213;43.206;27.922;2023-04-01T23:17:49;4.33;;;3.90;;
2404;SDS011;1213;43.206;27.922;2023-04-01T23:27:37;3.10;;;2.03;;
2404;SDS011;1213;43.206;27.922;2023-04-01T23:30:10;3.60;;;1.90;;
2404;SDS011;1213;43.206;27.922;2023-04-01T23:32:49;2.63;;;2.37;;
2404;SDS011;1213;43.206;27.922;2023-04-01T23:35:15;2.90;;;2.10;;
2404;SDS011;1213;43.206;27.922;2023-04-01T23:37:41;3.33;;;2.23;;
2404;SDS011;1213;43.206;27.922;2023-04-01T23:40:10;1.80;;;1.70;;
2404;SDS011;1213;43.206;27.922;2023-04-01T23:42:40;1.10;;;1.00;;
2404;SDS011;1213;43.206;27.922;2023-04-01T23:45:14;1.37;;;1.27;;
2404;SDS011;1213;43.206;27.922;2023-04-01T23:47:42;1.20;;;1.03;;
2404;SDS011;1213;43.206;27.922;2023-04-01T23:50:17;1.73;;;1.23;;
2404;SDS011;1213;43.206;27.922;2023-04-01T23:52:46;1.30;;;1.10;;
2404;SDS011;1213;43.206;27.922;2023-04-01T23:55:18;1.07;;;0.97;;
